Time;durP1;ratioP1;P1;durP2;ratioP2;P2;SDS_P1;SDS_P2;PMS_P1;PMS_P2;Temp;Humidity;BMP_temperature;BMP_pressure;BME280_temperature;BME280_humidity;BME280_pressure;Samples;Min_cycle;Max_cycle;Signal;HPM_P1;HPM_P2
2022/09/20 00:00:33;;;;;;;9.00;3.97;;;9.20;99.90;;;;;;5027562;28;20036;-64
2022/09/20 00:02:59;;;;;;;6.45;3.40;;;9.20;99.90;;;;;;5027903;28;20107;-66
2022/09/20 00:05:24;;;;;;;10.57;3.75;;;9.20;99.90;;;;;;5028935;28;20034;-64
2022/09/20 00:07:50;;;;;;;12.98;3.75;;;9.20;99.90;;;;;;5026902;28;20368;-66
2022/09/20 00:10:16;;;;;;;11.60;3.97;;;9.30;99.90;;;;;;5025979;28;20100;-67
2022/09/20 00:12:41;;;;;;;7.97;4.03;;;9.30;99.90;;;;;;5029415;28;20453;-70
2022/09/20 00:15:08;;;;;;;7.55;3.63;;;9.30;99.90;;;;;;5026673;28;20040;-67
2022/09/20 00:17:33;;;;;;;8.60;4.28;;;9.30;99.90;;;;;;5029881;28;20463;-65
2022/09/20 00:19:59;;;;;;;10.27;3.78;;;9.20;99.90;;;;;;5025870;28;20044;-66
2022/09/20 00:22:26;;;;;;;8.30;3.67;;;9.20;99.90;;;;;;5025028;28;20025;-65
2022/09/20 00:24:51;;;;;;;8.75;3.60;;;9.20;99.90;;;;;;5024634;28;20041;-66
2022/09/20 00:27:17;;;;;;;7.63;3.55;;;9.10;99.90;;;;;;5029155;28;20037;-66
2022/09/20 00:29:43;;;;;;;7.10;3.40;;;9.10;99.90;;;;;;5025781;28;20029;-71
2022/09/20 00:32:08;;;;;;;10.07;3.45;;;9.10;99.90;;;;;;5028071;28;20140;-66
2022/09/20 00:37:18;;;;;;;6.50;3.25;;;9.10;99.90;;;;;;5028904;28;20075;-66
2022/09/20 00:39:44;;;;;;;8.68;3.50;;;9.00;99.90;;;;;;5026293;28;20025;-68
2022/09/20 00:42:13;;;;;;;6.55;3.20;;;9.00;99.90;;;;;;5027943;28;20030;-65
2022/09/20 00:44:48;;;;;;;8.53;3.00;;;9.00;99.90;;;;;;5033821;28;20033;-67
2022/09/20 00:47:20;;;;;;;7.65;3.38;;;8.90;99.90;;;;;;5031296;28;20037;-64
2022/09/20 00:49:47;;;;;;;6.57;3.08;;;8.90;99.90;;;;;;5033271;28;20095;-66
2022/09/20 00:52:14;;;;;;;5.85;2.92;;;8.90;99.90;;;;;;5023248;28;20438;-65
2022/09/20 00:54:40;;;;;;;4.78;3.03;;;8.80;99.90;;;;;;5032788;28;20072;-64
2022/09/20 00:57:05;;;;;;;8.52;3.08;;;8.80;99.90;;;;;;5034545;28;20081;-66
2022/09/20 00:59:35;;;;;;;7.55;3.15;;;8.80;99.90;;;;;;5034932;28;20029;-65
2022/09/20 01:02:12;;;;;;;6.28;3.03;;;8.80;99.90;;;;;;5033757;28;20037;-69
2022/09/20 01:04:41;;;;;;;9.95;3.22;;;8.80;99.90;;;;;;5035027;28;20042;-66
2022/09/20 01:07:09;;;;;;;7.30;3.20;;;8.70;99.90;;;;;;5032228;28;20045;-66
2022/09/20 01:09:35;;;;;;;5.90;2.95;;;8.70;99.90;;;;;;5035077;28;20537;-65
2022/09/20 01:12:05;;;;;;;8.57;3.30;;;8.70;99.90;;;;;;5032826;28;20030;-67
2022/09/20 01:14:32;;;;;;;7.43;3.37;;;8.60;99.90;;;;;;5031788;28;20021;-66
2022/09/20 01:17:03;;;;;;;8.20;3.30;;;8.60;99.90;;;;;;5033887;28;20474;-66
2022/09/20 01:19:56;;;;;;;7.88;3.20;;;8.60;99.90;;;;;;5034922;28;20025;-66
2022/09/20 01:22:53;;;;;;;7.95;3.20;;;8.50;99.90;;;;;;5032102;28;20038;-66
2022/09/20 01:25:53;;;;;;;8.13;3.13;;;8.50;99.90;;;;;;5024721;28;20079;-67
2022/09/20 01:28:19;;;;;;;6.80;2.90;;;8.50;99.90;;;;;;5021462;28;20116;-66
2022/09/20 01:30:54;;;;;;;6.20;3.45;;;8.50;99.90;;;;;;5033836;28;20116;-71
2022/09/20 01:33:38;;;;;;;10.05;4.80;;;8.50;99.90;;;;;;5033575;28;20053;-66
2022/09/20 01:36:05;;;;;;;12.43;5.50;;;8.50;99.90;;;;;;5032667;28;20029;-66
2022/09/20 01:38:55;;;;;;;14.43;4.93;;;8.60;99.90;;;;;;5033455;28;20040;-65
2022/09/20 01:41:43;;;;;;;15.05;5.95;;;8.60;99.90;;;;;;5044141;28;20171;-65
2022/09/20 01:44:21;;;;;;;12.73;6.50;;;8.60;99.90;;;;;;5034763;28;20485;-66
2022/09/20 01:46:57;;;;;;;16.13;7.53;;;8.60;99.90;;;;;;5034148;28;20508;-71
2022/09/20 01:49:34;;;;;;;19.10;8.23;;;8.60;99.90;;;;;;5034369;28;20509;-68
2022/09/20 01:52:34;;;;;;;19.05;8.88;;;8.70;99.90;;;;;;5029417;28;20462;-65
2022/09/20 01:55:25;;;;;;;20.98;9.60;;;8.70;99.90;;;;;;4998488;28;20092;-64
2022/09/20 01:58:00;;;;;;;22.20;9.20;;;8.70;99.90;;;;;;5018998;28;20429;-65
2022/09/20 02:00:30;;;;;;;22.17;9.50;;;8.80;99.90;;;;;;5029261;28;20394;-66
2022/09/20 02:03:37;;;;;;;19.48;9.98;;;8.80;99.90;;;;;;5030572;28;20041;-66
2022/09/20 02:06:24;;;;;;;19.67;9.77;;;8.70;99.90;;;;;;5028407;28;20120;-63
2022/09/20 02:09:05;;;;;;;19.77;9.90;;;8.70;99.90;;;;;;5031030;28;20060;-71
2022/09/20 02:11:53;;;;;;;23.92;9.95;;;8.80;99.90;;;;;;5029180;28;20038;-68
2022/09/20 02:14:39;;;;;;;25.52;9.75;;;8.80;99.90;;;;;;5011254;28;20033;-66
2022/09/20 02:17:21;;;;;;;21.85;11.05;;;8.80;99.90;;;;;;5029336;28;20068;-66
2022/09/20 02:20:22;;;;;;;26.10;10.70;;;8.70;99.90;;;;;;5026516;28;20076;-71
2022/09/20 02:23:06;;;;;;;;;;;8.80;99.90;;;;;;5017571;28;20049;-70
2022/09/20 02:25:51;;;;;;;20.77;10.77;;;8.80;99.90;;;;;;5012233;28;19913;-65
2022/09/20 02:28:48;;;;;;;20.55;10.25;;;8.80;99.90;;;;;;5028451;28;20037;-66
2022/09/20 02:31:48;;;;;;;22.77;10.68;;;8.90;99.90;;;;;;5026457;28;20091;-66
2022/09/20 02:34:31;;;;;;;20.33;10.65;;;8.90;99.90;;;;;;5028377;28;20091;-65
2022/09/20 02:37:14;;;;;;;23.55;10.05;;;8.90;99.90;;;;;;5018703;28;20030;-68
2022/09/20 02:40:14;;;;;;;22.00;10.10;;;8.90;99.90;;;;;;5017494;28;20021;-66
2022/09/20 02:42:45;;;;;;;23.83;10.50;;;8.90;99.90;;;;;;5030874;28;20044;-64
2022/09/20 02:45:29;;;;;;;25.52;10.57;;;8.90;99.90;;;;;;5029180;28;20064;-65
2022/09/20 02:48:02;;;;;;;27.92;10.30;;;8.90;99.90;;;;;;5028677;28;20032;-66
2022/09/20 02:50:53;;;;;;;22.88;10.02;;;8.90;99.90;;;;;;5029464;28;20036;-66
2022/09/20 02:53:29;;;;;;;21.58;10.77;;;8.90;99.90;;;;;;5029577;28;20053;-66
2022/09/20 02:56:19;;;;;;;21.25;10.13;;;8.90;99.90;;;;;;5016018;28;20036;-66
2022/09/20 02:59:15;;;;;;;17.65;9.63;;;8.90;99.90;;;;;;5024486;28;20022;-64
2022/09/20 03:02:06;;;;;;;26.17;10.60;;;8.90;99.90;;;;;;5026009;28;20474;-64
2022/09/20 03:05:15;;;;;;;31.33;10.60;;;8.90;99.90;;;;;;5027227;28;20029;-65
2022/09/20 03:08:10;;;;;;;26.25;11.45;;;8.90;99.90;;;;;;5018525;28;20114;-66
2022/09/20 03:10:48;;;;;;;28.20;11.88;;;8.90;99.90;;;;;;5029963;28;20492;-66
2022/09/20 03:14:09;;;;;;;28.15;11.65;;;8.90;99.90;;;;;;5027792;28;20025;-65
2022/09/20 03:17:07;;;;;;;18.67;10.13;;;8.90;99.90;;;;;;4984432;28;20474;-65
2022/09/20 03:20:03;;;;;;;26.48;10.88;;;8.80;99.90;;;;;;5027609;28;20040;-65
2022/09/20 03:22:59;;;;;;;22.77;10.80;;;8.80;99.90;;;;;;5028126;28;20022;-65
2022/09/20 03:25:34;;;;;;;27.02;10.07;;;8.80;99.90;;;;;;5026609;28;20104;-65
2022/09/20 03:28:11;;;;;;;23.35;11.13;;;8.80;99.90;;;;;;5026256;28;20064;-64
2022/09/20 03:30:49;;;;;;;29.08;10.65;;;8.80;99.90;;;;;;5029396;28;20052;-66
2022/09/20 03:33:21;;;;;;;27.23;11.43;;;8.80;99.90;;;;;;5027677;28;20533;-65
2022/09/20 03:36:18;;;;;;;21.30;10.98;;;8.80;99.90;;;;;;5035373;28;20029;-66
2022/09/20 03:38:59;;;;;;;23.48;10.48;;;8.80;99.90;;;;;;5028151;28;20030;-63
2022/09/20 03:41:25;;;;;;;;;;;8.80;99.90;;;;;;5029597;28;20421;-64
2022/09/20 03:43:56;;;;;;;22.08;10.48;;;8.80;99.90;;;;;;5027721;28;19913;-66
2022/09/20 03:46:26;;;;;;;22.77;10.18;;;8.70;99.90;;;;;;5010560;28;20030;-68
2022/09/20 03:49:29;;;;;;;22.83;9.93;;;8.70;99.90;;;;;;5028018;28;20787;-68
2022/09/20 03:52:38;;;;;;;19.77;9.45;;;8.70;99.90;;;;;;5028931;28;20030;-70
2022/09/20 03:55:06;;;;;;;24.35;9.60;;;8.70;99.90;;;;;;5026396;28;20029;-64
2022/09/20 03:58:17;;;;;;;24.90;10.48;;;8.70;99.90;;;;;;5023652;28;20029;-68
2022/09/20 04:01:05;;;;;;;19.73;8.95;;;8.70;99.90;;;;;;5025083;28;20083;-63
2022/09/20 04:03:50;;;;;;;22.05;9.68;;;8.70;99.90;;;;;;5013197;28;20029;-66
2022/09/20 04:06:28;;;;;;;20.92;9.80;;;8.70;99.90;;;;;;5021815;28;20087;-65
2022/09/20 04:09:12;;;;;;;17.52;8.73;;;8.70;99.90;;;;;;5019985;28;20030;-70
2022/09/20 04:11:52;;;;;;;23.63;9.20;;;8.70;99.90;;;;;;5029038;28;20112;-64
2022/09/20 04:14:29;;;;;;;22.52;8.85;;;8.70;99.90;;;;;;5022562;28;20115;-64
2022/09/20 04:17:04;;;;;;;18.15;7.45;;;8.70;99.90;;;;;;5021686;28;20037;-68
2022/09/20 04:19:43;;;;;;;19.67;8.00;;;8.60;99.90;;;;;;5026608;28;20025;-65
2022/09/20 04:22:09;;;;;;;17.58;8.50;;;8.70;99.90;;;;;;5014070;28;20363;-67
2022/09/20 04:25:01;;;;;;;19.70;7.35;;;8.60;99.90;;;;;;5023075;28;20025;-64
2022/09/20 04:27:49;;;;;;;22.52;9.00;;;8.60;99.90;;;;;;5029694;28;20037;-65
2022/09/20 04:30:19;;;;;;;23.13;8.55;;;8.50;99.90;;;;;;5028485;28;20624;-63
2022/09/20 04:33:22;;;;;;;20.35;8.38;;;8.50;99.90;;;;;;5027741;28;20046;-64
2022/09/20 04:39:24;;;;;;;18.63;8.52;;;8.50;99.90;;;;;;5029076;28;20032;-65
2022/09/20 04:42:12;;;;;;;18.20;8.40;;;8.50;99.90;;;;;;5029785;28;20105;-66
2022/09/20 04:45:22;;;;;;;18.48;8.60;;;8.50;99.90;;;;;;5029758;28;20022;-65
2022/09/20 04:47:59;;;;;;;18.48;9.05;;;8.50;99.90;;;;;;5028416;28;20029;-63
2022/09/20 04:51:04;;;;;;;21.23;9.32;;;8.50;99.90;;;;;;5029251;28;20029;-63
2022/09/20 04:53:50;;;;;;;20.45;9.32;;;8.50;99.90;;;;;;5029173;28;20036;-65
2022/09/20 04:56:33;;;;;;;21.30;9.02;;;8.50;99.90;;;;;;5028738;28;20104;-64
2022/09/20 04:59:06;;;;;;;22.38;8.70;;;8.40;99.90;;;;;;5028151;28;20109;-67
2022/09/20 05:01:38;;;;;;;18.30;9.00;;;8.50;99.90;;;;;;5027094;28;20029;-66
2022/09/20 05:04:24;;;;;;;24.42;9.02;;;8.50;99.90;;;;;;5028476;28;20091;-63
2022/09/20 05:07:37;;;;;;;19.17;8.95;;;8.50;99.90;;;;;;5025054;28;20041;-61
2022/09/20 05:10:32;;;;;;;17.45;8.25;;;8.40;99.90;;;;;;4983700;28;20495;-61
2022/09/20 05:13:25;;;;;;;20.42;9.00;;;8.40;99.90;;;;;;4966865;28;20042;-62
2022/09/20 05:16:06;;;;;;;17.77;7.85;;;8.40;99.90;;;;;;4986061;28;20042;-63
2022/09/20 05:18:50;;;;;;;22.15;8.98;;;8.40;99.90;;;;;;4983385;28;20030;-62
2022/09/20 05:21:48;;;;;;;21.08;8.43;;;8.40;99.90;;;;;;4983879;28;20128;-62
2022/09/20 05:24:51;;;;;;;22.35;7.88;;;8.30;99.90;;;;;;4980530;28;20034;-61
2022/09/20 05:27:54;;;;;;;19.55;7.70;;;8.30;99.90;;;;;;4981464;28;20145;-61
2022/09/20 05:30:48;;;;;;;16.52;7.63;;;8.40;99.90;;;;;;4958697;28;20049;-61
2022/09/20 05:33:28;;;;;;;19.83;7.80;;;8.40;99.90;;;;;;4983394;28;20054;-64
2022/09/20 05:36:11;;;;;;;17.27;7.18;;;8.40;99.90;;;;;;4989401;28;20064;-64
2022/09/20 05:39:11;;;;;;;16.33;8.00;;;8.40;99.90;;;;;;4990787;28;20124;-67
2022/09/20 05:41:52;;;;;;;17.83;7.78;;;8.40;99.90;;;;;;5000833;28;20116;-74
2022/09/20 05:44:17;;;;;;;;;;;8.50;99.90;;;;;;5035204;28;20030;-70
2022/09/20 05:47:17;;;;;;;21.30;7.45;;;8.50;99.90;;;;;;5030528;28;20293;-69
2022/09/20 05:50:14;;;;;;;15.53;7.93;;;8.60;99.90;;;;;;5003596;28;20389;-68
2022/09/20 05:53:05;;;;;;;17.77;8.25;;;8.70;99.90;;;;;;5030446;28;20033;-68
2022/09/20 05:56:09;;;;;;;16.20;8.73;;;8.60;99.90;;;;;;5030718;28;20037;-69
2022/09/20 05:58:57;;;;;;;17.33;8.68;;;8.60;99.90;;;;;;5032434;28;20021;-67
2022/09/20 06:01:38;;;;;;;17.85;8.98;;;8.60;99.90;;;;;;5029421;28;20167;-70
2022/09/20 06:04:12;;;;;;;27.58;9.52;;;8.60;99.90;;;;;;5031270;28;20030;-73
2022/09/20 06:07:24;;;;;;;21.48;8.40;;;8.60;99.90;;;;;;5029109;28;20478;-68
2022/09/20 06:10:08;;;;;;;20.25;8.75;;;8.60;99.90;;;;;;5010661;28;20046;-66
2022/09/20 06:12:51;;;;;;;22.00;9.43;;;8.60;99.90;;;;;;5032155;28;20017;-68
2022/09/20 06:15:46;;;;;;;19.27;9.38;;;8.60;99.90;;;;;;5028957;28;20045;-70
2022/09/20 06:18:15;;;;;;;20.40;8.88;;;8.70;99.90;;;;;;5029171;28;20029;-67
2022/09/20 06:21:07;;;;;;;21.08;9.45;;;8.70;99.90;;;;;;5029757;28;20041;-68
2022/09/20 06:23:35;;;;;;;24.67;9.65;;;8.80;99.90;;;;;;5042659;28;20483;-67
2022/09/20 06:26:06;;;;;;;25.67;10.43;;;8.80;99.90;;;;;;5026703;28;20055;-68
2022/09/20 06:28:37;;;;;;;26.98;9.75;;;8.90;99.90;;;;;;5027009;28;20052;-68
2022/09/20 06:31:09;;;;;;;21.17;9.50;;;8.90;99.90;;;;;;5028896;28;20041;-70
2022/09/20 06:33:55;;;;;;;25.30;9.23;;;8.90;99.90;;;;;;5028416;28;20482;-66
2022/09/20 06:42:37;;;;;;;20.08;8.57;;;9.10;99.90;;;;;;5030929;28;20505;-65
2022/09/20 06:45:03;;;;;;;19.63;9.05;;;9.10;99.90;;;;;;5031316;28;20049;-72
2022/09/20 06:47:29;;;;;;;20.00;8.73;;;9.20;99.90;;;;;;5031184;28;20021;-66
2022/09/20 06:49:55;;;;;;;31.95;9.20;;;9.20;99.90;;;;;;5031547;28;20489;-66
2022/09/20 06:52:21;;;;;;;22.67;8.85;;;9.20;99.90;;;;;;5030506;28;20049;-69
2022/09/20 06:54:52;;;;;;;37.08;8.75;;;9.30;99.90;;;;;;5031501;28;20041;-67
2022/09/20 06:57:21;;;;;;;;;;;9.30;99.90;;;;;;5031173;28;20044;-66
2022/09/20 06:59:47;;;;;;;19.67;8.82;;;9.30;99.90;;;;;;5032285;28;20357;-68
2022/09/20 07:02:13;;;;;;;20.15;8.45;;;9.40;99.90;;;;;;5019574;28;20022;-67
2022/09/20 07:04:38;;;;;;;23.70;8.93;;;9.40;99.90;;;;;;5011502;28;20438;-66
2022/09/20 07:07:06;;;;;;;20.10;8.55;;;9.40;99.90;;;;;;5009906;28;20044;-72
2022/09/20 07:09:32;;;;;;;22.00;7.75;;;9.60;99.90;;;;;;5024445;28;20059;-65
2022/09/20 07:12:00;;;;;;;21.75;7.95;;;9.70;99.90;;;;;;5031196;28;20525;-66
2022/09/20 07:14:27;;;;;;;33.05;8.68;;;9.80;99.90;;;;;;5030327;28;20033;-64
2022/09/20 07:16:53;;;;;;;28.92;8.85;;;9.80;99.90;;;;;;5029724;28;20033;-67
2022/09/20 07:19:19;;;;;;;21.08;9.02;;;9.80;99.90;;;;;;5030175;28;20052;-67
2022/09/20 07:21:45;;;;;;;26.88;8.85;;;9.80;99.90;;;;;;5031003;28;20033;-65
2022/09/20 07:24:13;;;;;;;21.33;8.40;;;9.90;99.90;;;;;;5030060;28;20029;-66
2022/09/20 07:26:38;;;;;;;25.15;8.35;;;9.90;99.90;;;;;;5025554;28;20029;-66
2022/09/20 07:29:06;;;;;;;19.33;7.88;;;10.00;99.90;;;;;;5027911;28;20489;-64
2022/09/20 07:31:32;;;;;;;21.00;7.55;;;10.10;99.90;;;;;;5027820;28;20033;-68
2022/09/20 07:33:58;;;;;;;23.73;8.73;;;10.30;99.90;;;;;;5028677;28;20551;-64
2022/09/20 07:36:23;;;;;;;32.95;10.32;;;10.40;99.90;;;;;;5026238;28;20025;-67
2022/09/20 07:38:51;;;;;;;22.42;9.13;;;10.30;99.90;;;;;;5022995;28;20048;-66
2022/09/20 07:41:18;;;;;;;27.33;9.88;;;10.20;99.90;;;;;;5010036;28;20065;-68
2022/09/20 07:43:45;;;;;;;15.90;7.88;;;10.20;99.90;;;;;;5026932;28;20036;-66
2022/09/20 07:46:12;;;;;;;23.73;6.97;;;10.20;99.90;;;;;;5029761;28;20755;-67
2022/09/20 07:48:38;;;;;;;21.70;7.82;;;10.40;99.90;;;;;;5030117;28;20482;-65
2022/09/20 07:51:10;;;;;;;18.05;7.60;;;10.60;99.90;;;;;;5030051;28;20025;-65
2022/09/20 07:53:36;;;;;;;17.02;6.40;;;10.70;99.90;;;;;;5029852;28;20025;-68
2022/09/20 07:56:11;;;;;;;16.05;6.50;;;10.60;99.90;;;;;;5030200;28;20091;-70
2022/09/20 07:58:36;;;;;;;16.88;5.93;;;10.50;99.90;;;;;;5030397;28;20110;-66
2022/09/20 08:01:08;;;;;;;29.83;6.43;;;10.60;99.90;;;;;;5030107;28;20543;-68
2022/09/20 08:03:34;;;;;;;12.07;6.20;;;10.60;99.90;;;;;;5029732;28;20030;-66
2022/09/20 08:06:06;;;;;;;20.73;5.85;;;10.70;99.90;;;;;;5030212;28;20037;-66
2022/09/20 08:08:36;;;;;;;16.42;6.57;;;10.50;99.90;;;;;;5029466;28;20080;-67
2022/09/20 08:11:05;;;;;;;15.60;6.53;;;10.40;99.90;;;;;;5030482;28;20065;-67
2022/09/20 08:13:37;;;;;;;10.82;5.07;;;10.40;99.90;;;;;;5029680;28;20109;-66
2022/09/20 08:16:05;;;;;;;11.60;4.18;;;10.50;99.90;;;;;;5029952;28;20374;-68
2022/09/20 08:18:32;;;;;;;17.65;4.50;;;10.50;99.90;;;;;;5029346;28;20018;-68
2022/09/20 08:21:05;;;;;;;15.18;3.95;;;10.50;99.90;;;;;;5029974;28;20104;-65
2022/09/20 08:23:37;;;;;;;9.85;3.50;;;10.80;99.90;;;;;;5029239;28;20033;-65
2022/09/20 08:26:04;;;;;;;12.82;3.30;;;11.20;99.90;;;;;;5028776;28;20026;-66
2022/09/20 08:28:31;;;;;;;18.58;3.75;;;11.40;99.90;;;;;;5029111;28;20037;-67
2022/09/20 08:31:04;;;;;;;13.15;3.83;;;11.80;99.90;;;;;;5029892;28;20479;-64
2022/09/20 08:33:30;;;;;;;8.48;2.78;;;12.10;99.90;;;;;;5028481;28;20338;-65
2022/09/20 08:35:56;;;;;;;9.98;2.78;;;12.10;99.90;;;;;;5029664;28;20044;-66
2022/09/20 08:38:26;;;;;;;9.32;2.90;;;12.10;99.90;;;;;;5028885;28;20037;-67
2022/09/20 08:41:18;;;;;;;10.68;3.28;;;11.80;99.90;;;;;;5030086;28;20029;-68
2022/09/20 08:44:04;;;;;;;9.90;2.65;;;11.70;99.90;;;;;;5029667;28;20135;-65
2022/09/20 08:46:34;;;;;;;13.18;2.47;;;11.70;99.90;;;;;;5028502;28;20112;-67
2022/09/20 08:49:03;;;;;;;11.63;2.65;;;11.60;99.90;;;;;;5029519;28;20389;-66
2022/09/20 08:51:37;;;;;;;10.00;2.65;;;11.60;99.90;;;;;;5028309;28;20424;-67
2022/09/20 08:54:06;;;;;;;8.20;2.22;;;11.70;99.90;;;;;;5029663;28;20029;-66
2022/09/20 08:56:35;;;;;;;16.42;2.42;;;11.80;99.90;;;;;;5028714;28;20114;-67
2022/09/20 08:59:02;;;;;;;15.50;2.70;;;12.20;99.90;;;;;;5029590;28;20033;-66
2022/09/20 09:01:30;;;;;;;8.93;2.50;;;12.60;99.90;;;;;;5028768;28;20036;-66
2022/09/20 09:04:20;;;;;;;10.07;1.70;;;12.80;99.90;;;;;;5031859;28;20033;-68
2022/09/20 09:06:46;;;;;;;15.90;2.30;;;12.90;99.90;;;;;;5033557;28;20549;-66
2022/09/20 09:09:24;;;;;;;10.40;2.45;;;13.00;99.90;;;;;;5032991;28;20034;-72
2022/09/20 09:11:52;;;;;;;12.73;2.67;;;13.10;99.90;;;;;;5048798;28;20437;-64
2022/09/20 09:17:10;;;;;;;9.75;2.20;;;12.70;99.90;;;;;;5033436;28;20040;-67
2022/09/20 09:19:51;;;;;;;9.00;2.10;;;12.50;99.90;;;;;;5032624;28;20025;-66
2022/09/20 09:22:24;;;;;;;10.50;2.13;;;12.30;99.90;;;;;;5032593;28;20037;-68
2022/09/20 09:25:09;;;;;;;9.52;2.67;;;12.10;99.90;;;;;;5033190;28;20111;-65
2022/09/20 09:27:59;;;;;;;10.52;2.00;;;12.40;99.90;;;;;;5032260;28;20041;-66
2022/09/20 09:30:27;;;;;;;6.47;2.05;;;12.60;99.90;;;;;;5031997;28;20068;-66
2022/09/20 09:33:13;;;;;;;13.00;1.92;;;12.80;99.90;;;;;;5032867;28;20060;-64
2022/09/20 09:35:39;;;;;;;10.50;1.90;;;13.30;99.90;;;;;;5032383;28;20037;-65
2022/09/20 09:38:14;;;;;;;7.40;2.10;;;13.60;99.90;;;;;;5032722;28;20056;-65
2022/09/20 09:40:52;;;;;;;9.18;2.00;;;13.70;99.90;;;;;;5032455;28;20435;-67
2022/09/20 09:43:27;;;;;;;10.13;2.00;;;13.60;99.90;;;;;;5012297;28;20493;-66
2022/09/20 09:45:54;;;;;;;6.30;1.73;;;13.50;99.90;;;;;;5013295;28;20030;-67
2022/09/20 09:48:24;;;;;;;7.57;1.98;;;13.60;99.90;;;;;;5012288;28;20030;-67
2022/09/20 09:51:05;;;;;;;8.05;1.65;;;13.60;99.90;;;;;;5013045;28;20068;-67
2022/09/20 09:53:32;;;;;;;9.23;2.10;;;13.50;99.90;;;;;;5012215;28;20038;-66
2022/09/20 09:55:57;;;;;;;11.48;1.40;;;13.40;99.90;;;;;;5012836;28;20041;-67
2022/09/20 09:58:41;;;;;;;6.05;1.30;;;13.60;99.90;;;;;;5017308;28;20030;-65
2022/09/20 10:01:18;;;;;;;9.95;1.35;;;13.30;99.90;;;;;;5032494;28;20091;-67
2022/09/20 10:04:21;;;;;;;7.70;1.27;;;13.20;99.90;;;;;;5032566;28;20084;-65
2022/09/20 10:07:04;;;;;;;6.00;1.70;;;13.00;99.90;;;;;;5031705;28;20049;-68
2022/09/20 10:09:45;;;;;;;15.27;1.55;;;12.80;99.90;;;;;;5031634;28;20037;-65
2022/09/20 10:12:29;;;;;;;12.00;2.20;;;13.10;99.90;;;;;;5032418;28;20095;-66
2022/09/20 10:15:14;;;;;;;10.13;1.30;;;13.60;99.90;;;;;;5032057;28;20029;-66
2022/09/20 10:17:50;;;;;;;9.18;1.35;;;14.00;99.90;;;;;;5031648;28;20036;-64
2022/09/20 10:20:54;;;;;;;7.70;1.17;;;14.30;99.90;;;;;;5031957;28;20030;-69
2022/09/20 10:23:40;;;;;;;6.45;1.20;;;13.80;99.90;;;;;;5031346;28;20160;-68
2022/09/20 10:26:44;;;;;;;8.88;1.40;;;14.00;99.90;;;;;;5032146;28;20036;-67
2022/09/20 10:29:16;;;;;;;7.20;1.13;;;14.50;99.90;;;;;;4998083;28;20045;-66
2022/09/20 10:31:56;;;;;;;9.48;1.83;;;14.50;99.90;;;;;;5031261;28;20053;-66
2022/09/20 10:34:46;;;;;;;7.32;1.38;;;14.20;99.90;;;;;;5011746;28;20040;-69
2022/09/20 10:37:26;;;;;;;3.58;1.00;;;13.80;99.90;;;;;;5012139;28;20038;-67
2022/09/20 10:40:13;;;;;;;12.85;1.17;;;13.70;99.90;;;;;;5012356;28;20029;-67
2022/09/20 10:43:15;;;;;;;8.15;1.50;;;13.40;99.90;;;;;;5011190;28;20025;-66
2022/09/20 10:46:05;;;;;;;6.50;1.42;;;13.10;99.90;;;;;;5028606;28;20052;-68
2022/09/20 10:48:31;;;;;;;10.30;1.30;;;12.70;99.90;;;;;;5030871;28;20035;-64
2022/09/20 10:51:08;;;;;;;18.40;1.70;;;12.50;99.90;;;;;;5030142;28;20044;-68
2022/09/20 10:54:05;;;;;;;12.93;2.00;;;12.70;99.90;;;;;;5031087;28;20022;-66
2022/09/20 10:56:38;;;;;;;11.35;2.72;;;13.30;99.90;;;;;;5025674;28;20038;-67
2022/09/20 10:59:34;;;;;;;6.82;1.80;;;14.10;99.90;;;;;;5031486;28;20036;-66
2022/09/20 11:02:08;;;;;;;8.95;1.30;;;14.60;99.90;;;;;;5031538;28;20080;-64
2022/09/20 11:05:01;;;;;;;9.30;1.30;;;14.60;99.90;;;;;;5030590;28;20029;-65
2022/09/20 11:07:57;;;;;;;9.98;1.50;;;14.50;99.90;;;;;;5030315;28;20034;-66
2022/09/20 11:10:29;;;;;;;9.98;1.50;;;14.00;99.90;;;;;;5030450;28;20037;-67
2022/09/20 11:13:07;;;;;;;9.25;1.65;;;13.80;99.90;;;;;;5031305;28;20147;-66
2022/09/20 11:15:47;;;;;;;5.72;1.27;;;14.20;99.90;;;;;;5030405;28;20120;-65
2022/09/20 11:18:41;;;;;;;6.70;1.50;;;14.30;99.90;;;;;;5031163;28;20030;-67
2022/09/20 11:21:18;;;;;;;10.00;1.35;;;14.40;99.90;;;;;;5020325;28;20044;-66
2022/09/20 11:23:59;;;;;;;4.30;1.13;;;14.60;99.90;;;;;;5029880;28;20536;-64
2022/09/20 11:26:34;;;;;;;6.07;1.30;;;14.70;99.90;;;;;;5029754;28;20158;-64
2022/09/20 11:29:19;;;;;;;6.57;1.30;;;14.30;99.90;;;;;;5030701;28;20417;-64
2022/09/20 11:31:49;;;;;;;6.35;1.27;;;14.30;99.90;;;;;;5045113;28;20150;-65
2022/09/20 11:34:48;;;;;;;6.55;1.23;;;14.80;99.90;;;;;;5030813;28;20105;-65
2022/09/20 11:37:16;;;;;;;8.50;1.25;;;15.40;99.90;;;;;;5029992;28;20109;-66
2022/09/20 11:39:50;;;;;;;4.20;1.02;;;15.30;99.90;;;;;;5029843;28;20088;-70
2022/09/20 11:42:21;;;;;;;8.32;1.42;;;15.40;99.90;;;;;;5030410;28;20092;-65
2022/09/20 11:44:47;;;;;;;7.68;1.30;;;15.40;99.90;;;;;;5030185;28;20116;-66
2022/09/20 11:47:24;;;;;;;5.40;1.58;;;15.30;99.90;;;;;;5030456;28;20124;-66
2022/09/20 11:49:56;;;;;;;5.10;1.20;;;15.40;99.90;;;;;;5030502;28;20040;-64
2022/09/20 11:53:06;;;;;;;8.30;1.50;;;15.30;99.90;;;;;;5030142;28;20029;-71
2022/09/20 11:55:56;;;;;;;9.43;1.20;;;14.80;99.90;;;;;;5029573;28;20029;-67
2022/09/20 11:58:22;;;;;;;10.68;1.25;;;14.70;99.90;;;;;;5028930;28;20032;-71
2022/09/20 12:00:57;;;;;;;5.65;1.17;;;15.10;99.90;;;;;;5029853;28;20069;-64
2022/09/20 12:03:36;;;;;;;3.85;0.65;;;15.20;99.90;;;;;;5010404;28;20442;-70
2022/09/20 12:06:24;;;;;;;3.33;0.73;;;15.30;99.90;;;;;;5010505;28;20136;-69
2022/09/20 12:08:51;;;;;;;4.75;1.05;;;15.80;99.90;;;;;;5010650;28;20109;-65
2022/09/20 12:11:28;;;;;;;4.35;1.00;;;15.50;99.90;;;;;;5010513;28;20068;-66
2022/09/20 12:14:03;;;;;;;5.28;1.00;;;15.50;99.90;;;;;;5011733;28;20026;-65
2022/09/20 12:16:55;;;;;;;3.80;1.10;;;15.50;99.90;;;;;;5029355;28;20056;-64
2022/09/20 12:19:35;;;;;;;9.80;1.10;;;15.00;99.90;;;;;;5028927;28;20041;-68
2022/09/20 12:22:02;;;;;;;6.32;1.38;;;14.70;99.90;;;;;;5030095;28;20040;-67
2022/09/20 12:24:40;;;;;;;6.53;1.10;;;14.50;99.90;;;;;;5028896;28;20534;-64
2022/09/20 12:27:28;;;;;;;9.18;1.10;;;14.50;99.90;;;;;;5028875;28;20041;-66
2022/09/20 12:29:53;;;;;;;5.38;1.30;;;15.00;99.90;;;;;;5030330;28;20033;-65
2022/09/20 12:32:37;;;;;;;4.75;1.08;;;14.80;99.90;;;;;;5029686;28;20053;-67
2022/09/20 12:35:35;;;;;;;10.20;1.20;;;14.60;99.90;;;;;;5029097;28;20119;-65
2022/09/20 12:38:24;;;;;;;7.43;1.90;;;15.10;99.90;;;;;;5028999;28;20088;-66
2022/09/20 12:41:04;;;;;;;10.98;1.40;;;15.40;99.90;;;;;;5029163;28;20374;-68
2022/09/20 12:43:33;;;;;;;10.80;1.35;;;15.50;99.90;;;;;;5028989;28;20083;-64
2022/09/20 12:45:59;;;;;;;4.15;1.33;;;15.40;99.90;;;;;;5029366;28;20794;-65
2022/09/20 12:48:29;;;;;;;5.30;1.15;;;15.20;99.90;;;;;;5029060;28;20033;-74
2022/09/20 12:54:10;;;;;;;7.90;1.10;;;15.00;99.90;;;;;;5029450;28;20096;-66
2022/09/20 12:56:39;;;;;;;8.48;1.20;;;14.80;99.90;;;;;;5028826;28;20112;-65
2022/09/20 12:59:26;;;;;;;9.20;1.17;;;15.20;99.90;;;;;;5029567;28;20034;-65
2022/09/20 13:01:51;;;;;;;2.28;0.75;;;15.90;99.90;;;;;;5029181;28;20068;-66
2022/09/20 13:04:50;;;;;;;8.10;1.20;;;16.20;99.90;;;;;;5029444;28;20474;-68
2022/09/20 13:07:32;;;;;;;1.65;0.70;;;16.20;99.90;;;;;;5029355;28;20167;-65
2022/09/20 13:10:05;;;;;;;4.90;0.68;;;15.80;99.90;;;;;;5029478;28;20033;-65
2022/09/20 13:12:31;;;;;;;5.20;0.70;;;15.50;99.90;;;;;;5028446;28;20553;-68
2022/09/20 13:14:57;;;;;;;2.97;0.95;;;15.20;99.90;;;;;;5029700;28;20083;-67
2022/09/20 13:17:31;;;;;;;4.38;0.80;;;15.00;99.90;;;;;;5029400;28;20466;-66
2022/09/20 13:19:58;;;;;;;5.90;0.95;;;14.80;99.90;;;;;;5029673;28;20025;-66
2022/09/20 13:22:52;;;;;;;9.25;0.88;;;14.60;99.90;;;;;;5029077;28;20026;-65
2022/09/20 13:25:21;;;;;;;6.22;0.80;;;14.50;99.90;;;;;;5028355;28;20117;-66
2022/09/20 13:28:06;;;;;;;5.47;1.27;;;14.40;99.90;;;;;;5028252;28;20599;-65
2022/09/20 13:30:31;;;;;;;5.07;0.90;;;14.40;99.90;;;;;;5029918;28;20424;-67
2022/09/20 13:33:16;;;;;;;3.55;0.60;;;14.80;99.90;;;;;;5027494;28;20136;-67
2022/09/20 13:35:45;;;;;;;4.18;0.40;;;15.60;99.90;;;;;;5010960;28;20029;-66
2022/09/20 13:38:13;;;;;;;2.28;0.32;;;16.10;99.90;;;;;;5029200;28;20167;-67
2022/09/20 13:40:46;;;;;;;1.92;0.63;;;16.60;99.90;;;;;;5028193;28;20032;-66
2022/09/20 13:43:31;;;;;;;1.90;0.50;;;17.10;99.90;;;;;;5029187;28;20026;-69
2022/09/20 13:46:17;;;;;;;1.70;0.40;;;17.70;99.90;;;;;;5029463;28;20057;-67
2022/09/20 13:48:47;;;;;;;1.70;0.50;;;18.20;99.90;;;;;;5028421;28;20025;-66
2022/09/20 13:51:27;;;;;;;4.85;0.70;;;17.70;99.90;;;;;;5032568;28;20121;-64
2022/09/20 13:54:13;;;;;;;5.95;0.85;;;17.00;99.90;;;;;;5031932;28;20037;-68
2022/09/20 13:56:39;;;;;;;4.38;1.00;;;16.20;99.90;;;;;;5031338;28;20057;-65
2022/09/20 13:59:05;;;;;;;8.60;0.90;;;15.20;99.90;;;;;;5032439;28;20030;-66
2022/09/20 14:01:34;;;;;;;2.55;1.00;;;14.70;99.90;;;;;;5031889;28;20359;-70